sensor_id;sensor_type;location;lat;lon;timestamp;P1;durP1;ratioP1;P2;durP2;ratioP2
50126;SDS011;36024;47.974;16.398;2023-12-07T00:01:59;5.93;;;5.37;;
50126;SDS011;36024;47.974;16.398;2023-12-07T00:04:31;6.20;;;5.60;;
50126;SDS011;36024;47.974;16.398;2023-12-07T00:07:02;5.83;;;5.33;;
50126;SDS011;36024;47.974;16.398;2023-12-07T00:09:29;6.57;;;5.97;;
50126;SDS011;36024;47.974;16.398;2023-12-07T00:11:56;6.20;;;5.60;;
50126;SDS011;36024;47.974;16.398;2023-12-07T00:14:26;7.03;;;5.73;;
50126;SDS011;36024;47.974;16.398;2023-12-07T00:16:54;6.23;;;5.63;;
50126;SDS011;36024;47.974;16.398;2023-12-07T00:19:20;6.77;;;6.17;;
50126;SDS011;36024;47.974;16.398;2023-12-07T00:21:50;5.70;;;5.20;;
50126;SDS011;36024;47.974;16.398;2023-12-07T00:24:16;6.23;;;5.63;;
50126;SDS011;36024;47.974;16.398;2023-12-07T00:26:43;5.90;;;5.40;;
50126;SDS011;36024;47.974;16.398;2023-12-07T00:29:10;6.27;;;5.67;;
50126;SDS011;36024;47.974;16.398;2023-12-07T00:31:39;6.10;;;5.60;;
50126;SDS011;36024;47.974;16.398;2023-12-07T00:34:07;6.67;;;5.97;;
50126;SDS011;36024;47.974;16.398;2023-12-07T00:36:38;6.43;;;5.83;;
50126;SDS011;36024;47.974;16.398;2023-12-07T00:39:07;6.33;;;5.73;;
50126;SDS011;36024;47.974;16.398;2023-12-07T00:41:38;6.23;;;5.67;;
50126;SDS011;36024;47.974;16.398;2023-12-07T00:44:12;5.83;;;5.30;;
50126;SDS011;36024;47.974;16.398;2023-12-07T00:46:39;6.00;;;5.47;;
50126;SDS011;36024;47.974;16.398;2023-12-07T00:49:06;6.00;;;5.40;;
50126;SDS011;36024;47.974;16.398;2023-12-07T00:51:33;5.97;;;5.37;;
50126;SDS011;36024;47.974;16.398;2023-12-07T00:54:00;6.50;;;5.90;;
50126;SDS011;36024;47.974;16.398;2023-12-07T00:56:27;6.60;;;6.00;;
50126;SDS011;36024;47.974;16.398;2023-12-07T00:58:57;6.20;;;5.60;;
50126;SDS011;36024;47.974;16.398;2023-12-07T01:01:27;6.13;;;5.53;;
50126;SDS011;36024;47.974;16.398;2023-12-07T01:03:56;6.47;;;5.87;;
50126;SDS011;36024;47.974;16.398;2023-12-07T01:06:30;5.83;;;5.33;;
50126;SDS011;36024;47.974;16.398;2023-12-07T01:08:59;5.90;;;5.30;;
50126;SDS011;36024;47.974;16.398;2023-12-07T01:11:27;5.90;;;5.40;;
50126;SDS011;36024;47.974;16.398;2023-12-07T01:13:53;6.10;;;5.50;;
50126;SDS011;36024;47.974;16.398;2023-12-07T01:16:21;5.93;;;5.43;;
50126;SDS011;36024;47.974;16.398;2023-12-07T01:18:48;5.40;;;4.90;;
50126;SDS011;36024;47.974;16.398;2023-12-07T01:21:16;5.50;;;5.00;;
50126;SDS011;36024;47.974;16.398;2023-12-07T01:23:43;5.50;;;5.00;;
50126;SDS011;36024;47.974;16.398;2023-12-07T01:26:26;5.77;;;5.27;;
50126;SDS011;36024;47.974;16.398;2023-12-07T01:28:56;5.50;;;5.00;;
50126;SDS011;36024;47.974;16.398;2023-12-07T01:31:23;5.97;;;5.40;;
50126;SDS011;36024;47.974;16.398;2023-12-07T01:33:51;5.40;;;4.90;;
50126;SDS011;36024;47.974;16.398;2023-12-07T01:36:18;5.63;;;5.13;;
50126;SDS011;36024;47.974;16.398;2023-12-07T01:38:45;5.13;;;4.73;;
50126;SDS011;36024;47.974;16.398;2023-12-07T01:41:12;5.77;;;5.20;;
50126;SDS011;36024;47.974;16.398;2023-12-07T01:43:47;5.57;;;5.07;;
50126;SDS011;36024;47.974;16.398;2023-12-07T01:46:16;5.47;;;4.97;;
50126;SDS011;36024;47.974;16.398;2023-12-07T01:48:43;6.00;;;5.40;;
50126;SDS011;36024;47.974;16.398;2023-12-07T01:51:14;5.80;;;5.30;;
50126;SDS011;36024;47.974;16.398;2023-12-07T01:53:41;6.10;;;5.60;;
50126;SDS011;36024;47.974;16.398;2023-12-07T01:56:11;5.80;;;5.30;;
50126;SDS011;36024;47.974;16.398;2023-12-07T01:58:39;5.97;;;5.40;;
50126;SDS011;36024;47.974;16.398;2023-12-07T02:01:11;5.50;;;5.00;;
50126;SDS011;36024;47.974;16.398;2023-12-07T02:03:40;5.80;;;5.30;;
50126;SDS011;36024;47.974;16.398;2023-12-07T02:06:07;6.20;;;5.60;;
50126;SDS011;36024;47.974;16.398;2023-12-07T02:08:40;5.80;;;5.30;;
50126;SDS011;36024;47.974;16.398;2023-12-07T02:11:08;6.20;;;5.60;;
50126;SDS011;36024;47.974;16.398;2023-12-07T02:13:39;5.93;;;5.43;;
50126;SDS011;36024;47.974;16.398;2023-12-07T02:16:11;5.83;;;5.23;;
50126;SDS011;36024;47.974;16.398;2023-12-07T02:21:33;6.03;;;5.50;;
50126;SDS011;36024;47.974;16.398;2023-12-07T02:24:01;6.37;;;5.77;;
50126;SDS011;36024;47.974;16.398;2023-12-07T02:26:53;6.57;;;5.97;;
50126;SDS011;36024;47.974;16.398;2023-12-07T02:29:19;6.30;;;5.70;;
50126;SDS011;36024;47.974;16.398;2023-12-07T02:31:46;6.07;;;5.47;;
50126;SDS011;36024;47.974;16.398;2023-12-07T02:34:13;6.27;;;5.67;;
50126;SDS011;36024;47.974;16.398;2023-12-07T02:36:46;6.30;;;5.70;;
50126;SDS011;36024;47.974;16.398;2023-12-07T02:39:17;6.63;;;6.03;;
50126;SDS011;36024;47.974;16.398;2023-12-07T02:41:44;6.63;;;6.03;;
50126;SDS011;36024;47.974;16.398;2023-12-07T02:44:12;6.70;;;6.10;;
50126;SDS011;36024;47.974;16.398;2023-12-07T02:46:39;6.27;;;5.67;;
50126;SDS011;36024;47.974;16.398;2023-12-07T02:49:06;6.80;;;6.10;;
50126;SDS011;36024;47.974;16.398;2023-12-07T02:51:33;7.40;;;6.70;;
50126;SDS011;36024;47.974;16.398;2023-12-07T02:53:59;6.80;;;6.20;;
50126;SDS011;36024;47.974;16.398;2023-12-07T02:56:26;6.90;;;6.20;;
50126;SDS011;36024;47.974;16.398;2023-12-07T02:58:53;6.77;;;6.17;;
50126;SDS011;36024;47.974;16.398;2023-12-07T03:01:22;6.47;;;5.87;;
50126;SDS011;36024;47.974;16.398;2023-12-07T03:03:52;7.37;;;6.67;;
50126;SDS011;36024;47.974;16.398;2023-12-07T03:06:19;6.57;;;5.97;;
50126;SDS011;36024;47.974;16.398;2023-12-07T03:08:47;6.40;;;5.80;;
50126;SDS011;36024;47.974;16.398;2023-12-07T03:11:14;6.70;;;6.10;;
50126;SDS011;36024;47.974;16.398;2023-12-07T03:13:43;6.77;;;6.17;;
50126;SDS011;36024;47.974;16.398;2023-12-07T03:16:12;6.80;;;6.20;;
50126;SDS011;36024;47.974;16.398;2023-12-07T03:18:40;6.70;;;6.10;;
50126;SDS011;36024;47.974;16.398;2023-12-07T03:21:08;7.17;;;6.50;;
50126;SDS011;36024;47.974;16.398;2023-12-07T03:23:35;6.83;;;6.20;;
50126;SDS011;36024;47.974;16.398;2023-12-07T03:26:04;6.93;;;6.33;;
50126;SDS011;36024;47.974;16.398;2023-12-07T03:28:34;6.97;;;6.27;;
50126;SDS011;36024;47.974;16.398;2023-12-07T03:31:03;6.57;;;5.97;;
50126;SDS011;36024;47.974;16.398;2023-12-07T03:33:29;6.93;;;6.33;;
50126;SDS011;36024;47.974;16.398;2023-12-07T03:35:56;6.83;;;6.13;;
50126;SDS011;36024;47.974;16.398;2023-12-07T03:38:23;6.93;;;6.33;;
50126;SDS011;36024;47.974;16.398;2023-12-07T03:43:27;7.20;;;6.50;;
50126;SDS011;36024;47.974;16.398;2023-12-07T03:45:54;6.93;;;6.30;;
50126;SDS011;36024;47.974;16.398;2023-12-07T03:48:24;7.77;;;6.97;;
50126;SDS011;36024;47.974;16.398;2023-12-07T03:50:51;6.57;;;5.97;;
50126;SDS011;36024;47.974;16.398;2023-12-07T03:53:19;6.80;;;6.20;;
50126;SDS011;36024;47.974;16.398;2023-12-07T03:55:45;6.73;;;6.13;;
50126;SDS011;36024;47.974;16.398;2023-12-07T03:58:12;6.50;;;5.90;;
50126;SDS011;36024;47.974;16.398;2023-12-07T04:00:40;6.60;;;6.00;;
50126;SDS011;36024;47.974;16.398;2023-12-07T04:03:09;6.37;;;5.77;;
50126;SDS011;36024;47.974;16.398;2023-12-07T04:05:36;6.87;;;6.23;;
50126;SDS011;36024;47.974;16.398;2023-12-07T04:08:05;6.93;;;6.23;;
50126;SDS011;36024;47.974;16.398;2023-12-07T04:10:32;6.63;;;6.03;;
50126;SDS011;36024;47.974;16.398;2023-12-07T04:13:01;7.20;;;6.50;;
50126;SDS011;36024;47.974;16.398;2023-12-07T04:15:28;7.63;;;6.93;;
50126;SDS011;36024;47.974;16.398;2023-12-07T04:17:55;7.00;;;6.30;;
50126;SDS011;36024;47.974;16.398;2023-12-07T04:20:24;7.57;;;6.87;;
50126;SDS011;36024;47.974;16.398;2023-12-07T04:22:51;6.87;;;6.27;;
50126;SDS011;36024;47.974;16.398;2023-12-07T04:25:18;7.10;;;6.40;;
50126;SDS011;36024;47.974;16.398;2023-12-07T04:27:48;7.33;;;6.63;;
50126;SDS011;36024;47.974;16.398;2023-12-07T04:30:14;7.30;;;6.67;;
50126;SDS011;36024;47.974;16.398;2023-12-07T04:32:41;8.03;;;7.23;;
50126;SDS011;36024;47.974;16.398;2023-12-07T04:35:11;7.77;;;6.97;;
50126;SDS011;36024;47.974;16.398;2023-12-07T04:37:38;7.40;;;6.70;;
50126;SDS011;36024;47.974;16.398;2023-12-07T04:40:05;8.17;;;7.23;;
50126;SDS011;36024;47.974;16.398;2023-12-07T04:42:34;8.13;;;7.33;;
50126;SDS011;36024;47.974;16.398;2023-12-07T04:45:00;8.23;;;7.43;;
50126;SDS011;36024;47.974;16.398;2023-12-07T04:47:27;8.00;;;7.20;;
50126;SDS011;36024;47.974;16.398;2023-12-07T04:49:54;7.87;;;6.83;;
50126;SDS011;36024;47.974;16.398;2023-12-07T04:52:21;8.53;;;7.50;;
50126;SDS011;36024;47.974;16.398;2023-12-07T04:54:51;8.73;;;7.83;;
50126;SDS011;36024;47.974;16.398;2023-12-07T04:57:18;8.37;;;7.57;;
50126;SDS011;36024;47.974;16.398;2023-12-07T04:59:46;8.47;;;7.67;;
50126;SDS011;36024;47.974;16.398;2023-12-07T05:02:15;8.53;;;7.67;;
50126;SDS011;36024;47.974;16.398;2023-12-07T05:04:48;9.03;;;8.13;;
50126;SDS011;36024;47.974;16.398;2023-12-07T05:07:17;8.60;;;7.70;;
50126;SDS011;36024;47.974;16.398;2023-12-07T05:09:48;8.87;;;7.97;;
50126;SDS011;36024;47.974;16.398;2023-12-07T05:12:18;8.70;;;7.90;;
50126;SDS011;36024;47.974;16.398;2023-12-07T05:14:45;9.00;;;8.03;;
50126;SDS011;36024;47.974;16.398;2023-12-07T05:17:13;8.13;;;7.33;;
50126;SDS011;36024;47.974;16.398;2023-12-07T05:19:43;8.27;;;7.43;;
50126;SDS011;36024;47.974;16.398;2023-12-07T05:22:10;7.87;;;7.07;;
50126;SDS011;36024;47.974;16.398;2023-12-07T05:24:39;8.77;;;7.80;;
50126;SDS011;36024;47.974;16.398;2023-12-07T05:27:06;8.30;;;7.40;;
50126;SDS011;36024;47.974;16.398;2023-12-07T05:29:33;8.87;;;7.97;;
50126;SDS011;36024;47.974;16.398;2023-12-07T05:32:00;8.47;;;7.57;;
50126;SDS011;36024;47.974;16.398;2023-12-07T05:34:27;8.40;;;7.60;;
50126;SDS011;36024;47.974;16.398;2023-12-07T05:36:54;8.27;;;7.47;;
50126;SDS011;36024;47.974;16.398;2023-12-07T05:39:21;8.33;;;7.53;;
50126;SDS011;36024;47.974;16.398;2023-12-07T05:41:48;8.40;;;7.60;;
50126;SDS011;36024;47.974;16.398;2023-12-07T05:44:15;7.87;;;7.07;;
50126;SDS011;36024;47.974;16.398;2023-12-07T05:46:48;8.23;;;7.43;;
50126;SDS011;36024;47.974;16.398;2023-12-07T05:49:16;8.30;;;7.50;;
50126;SDS011;36024;47.974;16.398;2023-12-07T05:51:46;7.77;;;7.00;;
50126;SDS011;36024;47.974;16.398;2023-12-07T05:54:13;8.07;;;7.27;;
50126;SDS011;36024;47.974;16.398;2023-12-07T05:56:42;8.13;;;7.30;;
50126;SDS011;36024;47.974;16.398;2023-12-07T05:59:09;8.73;;;7.83;;
50126;SDS011;36024;47.974;16.398;2023-12-07T06:01:36;8.17;;;7.30;;
50126;SDS011;36024;47.974;16.398;2023-12-07T06:04:08;7.90;;;6.87;;
50126;SDS011;36024;47.974;16.398;2023-12-07T06:06:40;8.03;;;7.10;;
50126;SDS011;36024;47.974;16.398;2023-12-07T06:09:07;8.10;;;7.30;;
50126;SDS011;36024;47.974;16.398;2023-12-07T06:11:34;8.83;;;7.63;;
50126;SDS011;36024;47.974;16.398;2023-12-07T06:14:03;8.40;;;7.60;;
50126;SDS011;36024;47.974;16.398;2023-12-07T06:16:32;8.77;;;7.87;;
50126;SDS011;36024;47.974;16.398;2023-12-07T06:18:59;8.70;;;7.80;;
50126;SDS011;36024;47.974;16.398;2023-12-07T06:21:27;8.50;;;7.60;;
50126;SDS011;36024;47.974;16.398;2023-12-07T06:23:57;8.97;;;8.07;;
50126;SDS011;36024;47.974;16.398;2023-12-07T06:26:27;9.27;;;8.37;;
50126;SDS011;36024;47.974;16.398;2023-12-07T06:28:54;9.17;;;8.27;;
50126;SDS011;36024;47.974;16.398;2023-12-07T06:31:21;9.70;;;8.70;;
50126;SDS011;36024;47.974;16.398;2023-12-07T06:33:48;10.00;;;9.00;;
50126;SDS011;36024;47.974;16.398;2023-12-07T06:36:19;10.70;;;8.80;;
50126;SDS011;36024;47.974;16.398;2023-12-07T06:38:47;9.70;;;8.70;;
50126;SDS011;36024;47.974;16.398;2023-12-07T06:41:14;9.50;;;8.50;;
50126;SDS011;36024;47.974;16.398;2023-12-07T06:43:41;9.93;;;8.70;;
50126;SDS011;36024;47.974;16.398;2023-12-07T06:46:12;11.07;;;8.47;;
50126;SDS011;36024;47.974;16.398;2023-12-07T06:48:40;9.40;;;8.40;;
50126;SDS011;36024;47.974;16.398;2023-12-07T06:51:07;9.53;;;8.53;;
50126;SDS011;36024;47.974;16.398;2023-12-07T06:53:37;9.40;;;8.40;;
50126;SDS011;36024;47.974;16.398;2023-12-07T06:56:03;9.20;;;8.23;;
50126;SDS011;36024;47.974;16.398;2023-12-07T06:58:34;9.73;;;8.40;;
50126;SDS011;36024;47.974;16.398;2023-12-07T07:01:01;9.20;;;8.30;;
50126;SDS011;36024;47.974;16.398;2023-12-07T07:03:31;8.97;;;8.07;;
50126;SDS011;36024;47.974;16.398;2023-12-07T07:05:58;9.33;;;8.37;;
50126;SDS011;36024;47.974;16.398;2023-12-07T07:08:26;9.23;;;8.23;;
50126;SDS011;36024;47.974;16.398;2023-12-07T07:10:53;9.57;;;8.57;;
50126;SDS011;36024;47.974;16.398;2023-12-07T07:13:19;9.70;;;8.27;;
50126;SDS011;36024;47.974;16.398;2023-12-07T07:15:49;9.47;;;8.47;;
50126;SDS011;36024;47.974;16.398;2023-12-07T07:18:17;9.10;;;8.20;;
50126;SDS011;36024;47.974;16.398;2023-12-07T07:20:51;8.70;;;7.90;;
50126;SDS011;36024;47.974;16.398;2023-12-07T07:23:18;9.17;;;8.27;;
50126;SDS011;36024;47.974;16.398;2023-12-07T07:25:45;10.37;;;8.40;;
50126;SDS011;36024;47.974;16.398;2023-12-07T07:28:14;9.33;;;8.20;;
50126;SDS011;36024;47.974;16.398;2023-12-07T07:30:42;9.10;;;8.20;;
50126;SDS011;36024;47.974;16.398;2023-12-07T07:33:24;9.13;;;8.23;;
50126;SDS011;36024;47.974;16.398;2023-12-07T07:35:52;9.00;;;8.13;;
50126;SDS011;36024;47.974;16.398;2023-12-07T07:38:21;9.57;;;8.57;;
50126;SDS011;36024;47.974;16.398;2023-12-07T07:40:48;9.07;;;8.17;;
50126;SDS011;36024;47.974;16.398;2023-12-07T07:43:15;9.40;;;8.33;;
50126;SDS011;36024;47.974;16.398;2023-12-07T07:45:42;8.77;;;7.87;;
50126;SDS011;36024;47.974;16.398;2023-12-07T07:48:14;8.97;;;8.10;;
50126;SDS011;36024;47.974;16.398;2023-12-07T07:50:41;9.40;;;8.00;;
50126;SDS011;36024;47.974;16.398;2023-12-07T07:53:08;9.30;;;8.30;;
50126;SDS011;36024;47.974;16.398;2023-12-07T07:55:35;8.47;;;7.67;;
50126;SDS011;36024;47.974;16.398;2023-12-07T07:58:07;9.00;;;8.10;;
50126;SDS011;36024;47.974;16.398;2023-12-07T08:00:34;9.50;;;7.87;;
50126;SDS011;36024;47.974;16.398;2023-12-07T08:03:04;9.87;;;8.33;;
50126;SDS011;36024;47.974;16.398;2023-12-07T08:05:33;8.73;;;7.83;;
50126;SDS011;36024;47.974;16.398;2023-12-07T08:08:00;8.43;;;7.50;;
50126;SDS011;36024;47.974;16.398;2023-12-07T08:10:27;8.67;;;7.77;;
50126;SDS011;36024;47.974;16.398;2023-12-07T08:12:54;9.10;;;8.20;;
50126;SDS011;36024;47.974;16.398;2023-12-07T08:15:20;9.07;;;8.17;;
50126;SDS011;36024;47.974;16.398;2023-12-07T08:17:48;10.63;;;8.83;;
50126;SDS011;36024;47.974;16.398;2023-12-07T08:20:15;9.47;;;7.93;;
50126;SDS011;36024;47.974;16.398;2023-12-07T08:22:44;9.73;;;8.60;;
50126;SDS011;36024;47.974;16.398;2023-12-07T08:25:10;9.80;;;8.57;;
50126;SDS011;36024;47.974;16.398;2023-12-07T08:27:38;9.87;;;8.47;;
50126;SDS011;36024;47.974;16.398;2023-12-07T08:30:05;9.40;;;8.43;;
50126;SDS011;36024;47.974;16.398;2023-12-07T08:32:32;9.97;;;8.97;;
50126;SDS011;36024;47.974;16.398;2023-12-07T08:34:59;9.77;;;8.77;;
50126;SDS011;36024;47.974;16.398;2023-12-07T08:37:26;10.17;;;9.13;;
50126;SDS011;36024;47.974;16.398;2023-12-07T08:39:55;10.47;;;8.70;;
50126;SDS011;36024;47.974;16.398;2023-12-07T08:42:21;9.67;;;8.47;;
50126;SDS011;36024;47.974;16.398;2023-12-07T08:44:48;9.20;;;8.23;;
50126;SDS011;36024;47.974;16.398;2023-12-07T08:47:15;8.50;;;7.57;;
50126;SDS011;36024;47.974;16.398;2023-12-07T08:49:45;9.17;;;8.27;;
50126;SDS011;36024;47.974;16.398;2023-12-07T08:52:12;9.10;;;8.20;;
50126;SDS011;36024;47.974;16.398;2023-12-07T08:54:57;9.70;;;8.67;;
50126;SDS011;36024;47.974;16.398;2023-12-07T08:57:23;9.10;;;8.20;;
50126;SDS011;36024;47.974;16.398;2023-12-07T08:59:50;8.87;;;7.97;;
50126;SDS011;36024;47.974;16.398;2023-12-07T09:02:18;11.47;;;8.03;;
50126;SDS011;36024;47.974;16.398;2023-12-07T09:05:04;10.00;;;8.27;;
50126;SDS011;36024;47.974;16.398;2023-12-07T09:07:34;9.03;;;8.07;;
50126;SDS011;36024;47.974;16.398;2023-12-07T09:10:00;8.37;;;7.43;;
50126;SDS011;36024;47.974;16.398;2023-12-07T09:12:30;8.17;;;7.37;;
50126;SDS011;36024;47.974;16.398;2023-12-07T09:15:04;9.20;;;8.30;;
50126;SDS011;36024;47.974;16.398;2023-12-07T09:17:34;9.00;;;8.10;;
50126;SDS011;36024;47.974;16.398;2023-12-07T09:20:07;8.53;;;7.60;;
50126;SDS011;36024;47.974;16.398;2023-12-07T09:22:45;8.60;;;7.70;;
50126;SDS011;36024;47.974;16.398;2023-12-07T09:25:15;8.00;;;7.20;;
50126;SDS011;36024;47.974;16.398;2023-12-07T09:27:46;7.17;;;6.47;;
50126;SDS011;36024;47.974;16.398;2023-12-07T09:30:14;8.00;;;7.20;;
50126;SDS011;36024;47.974;16.398;2023-12-07T09:32:43;6.90;;;6.20;;
50126;SDS011;36024;47.974;16.398;2023-12-07T09:35:11;7.57;;;6.83;;
50126;SDS011;36024;47.974;16.398;2023-12-07T09:37:46;7.77;;;6.83;;
50126;SDS011;36024;47.974;16.398;2023-12-07T09:40:17;8.33;;;7.00;;
50126;SDS011;36024;47.974;16.398;2023-12-07T09:42:45;7.90;;;7.10;;
50126;SDS011;36024;47.974;16.398;2023-12-07T09:45:14;7.47;;;6.73;;
50126;SDS011;36024;47.974;16.398;2023-12-07T09:47:43;8.17;;;7.37;;
50126;SDS011;36024;47.974;16.398;2023-12-07T09:50:10;8.10;;;7.07;;
50126;SDS011;36024;47.974;16.398;2023-12-07T09:52:39;8.63;;;7.23;;
50126;SDS011;36024;47.974;16.398;2023-12-07T09:55:11;9.40;;;7.63;;
50126;SDS011;36024;47.974;16.398;2023-12-07T09:57:40;9.07;;;8.17;;
50126;SDS011;36024;47.974;16.398;2023-12-07T10:00:07;10.27;;;8.47;;
50126;SDS011;36024;47.974;16.398;2023-12-07T10:02:36;8.23;;;7.40;;
50126;SDS011;36024;47.974;16.398;2023-12-07T10:05:11;9.10;;;8.20;;
50126;SDS011;36024;47.974;16.398;2023-12-07T10:07:41;8.47;;;7.63;;
50126;SDS011;36024;47.974;16.398;2023-12-07T10:10:08;8.63;;;7.83;;
50126;SDS011;36024;47.974;16.398;2023-12-07T10:12:44;8.13;;;7.33;;
50126;SDS011;36024;47.974;16.398;2023-12-07T10:15:22;7.60;;;6.90;;
50126;SDS011;36024;47.974;16.398;2023-12-07T10:17:56;7.67;;;6.87;;
50126;SDS011;36024;47.974;16.398;2023-12-07T10:20:24;8.93;;;8.03;;
50126;SDS011;36024;47.974;16.398;2023-12-07T10:23:05;7.60;;;6.90;;
50126;SDS011;36024;47.974;16.398;2023-12-07T10:25:40;8.97;;;8.07;;
50126;SDS011;36024;47.974;16.398;2023-12-07T10:28:09;8.73;;;7.60;;
50126;SDS011;36024;47.974;16.398;2023-12-07T10:30:41;7.90;;;7.10;;
50126;SDS011;36024;47.974;16.398;2023-12-07T10:33:10;9.03;;;8.13;;
50126;SDS011;36024;47.974;16.398;2023-12-07T10:35:40;9.13;;;7.97;;
50126;SDS011;36024;47.974;16.398;2023-12-07T10:38:12;8.23;;;7.43;;
50126;SDS011;36024;47.974;16.398;2023-12-07T10:40:39;9.53;;;8.10;;
50126;SDS011;36024;47.974;16.398;2023-12-07T10:43:06;9.93;;;8.13;;
50126;SDS011;36024;47.974;16.398;2023-12-07T10:45:35;8.93;;;8.03;;
50126;SDS011;36024;47.974;16.398;2023-12-07T10:48:07;8.17;;;7.37;;
50126;SDS011;36024;47.974;16.398;2023-12-07T10:50:41;8.70;;;7.80;;
50126;SDS011;36024;47.974;16.398;2023-12-07T10:53:14;8.17;;;7.33;;
50126;SDS011;36024;47.974;16.398;2023-12-07T10:55:47;7.20;;;6.50;;
50126;SDS011;36024;47.974;16.398;2023-12-07T10:58:18;8.30;;;7.40;;
50126;SDS011;36024;47.974;16.398;2023-12-07T11:00:47;8.47;;;7.57;;
50126;SDS011;36024;47.974;16.398;2023-12-07T11:03:16;7.97;;;7.17;;
50126;SDS011;36024;47.974;16.398;2023-12-07T11:05:48;7.07;;;6.37;;
50126;SDS011;36024;47.974;16.398;2023-12-07T11:13:57;7.30;;;6.60;;
50126;SDS011;36024;47.974;16.398;2023-12-07T11:16:33;9.30;;;8.20;;
50126;SDS011;36024;47.974;16.398;2023-12-07T11:19:03;9.10;;;7.87;;
50126;SDS011;36024;47.974;16.398;2023-12-07T11:21:38;8.60;;;7.70;;
50126;SDS011;36024;47.974;16.398;2023-12-07T11:24:07;9.33;;;8.43;;
50126;SDS011;36024;47.974;16.398;2023-12-07T11:26:42;8.87;;;7.97;;
50126;SDS011;36024;47.974;16.398;2023-12-07T11:29:09;8.57;;;7.67;;
50126;SDS011;36024;47.974;16.398;2023-12-07T11:31:38;9.10;;;8.20;;
50126;SDS011;36024;47.974;16.398;2023-12-07T11:34:06;9.10;;;8.27;;
50126;SDS011;36024;47.974;16.398;2023-12-07T11:36:40;9.87;;;8.83;;
50126;SDS011;36024;47.974;16.398;2023-12-07T11:41:53;8.97;;;8.07;;
50126;SDS011;36024;47.974;16.398;2023-12-07T11:44:44;10.13;;;9.13;;
50126;SDS011;36024;47.974;16.398;2023-12-07T11:47:12;9.30;;;8.30;;
50126;SDS011;36024;47.974;16.398;2023-12-07T11:49:43;9.33;;;8.20;;
50126;SDS011;36024;47.974;16.398;2023-12-07T11:52:20;9.67;;;8.67;;
50126;SDS011;36024;47.974;16.398;2023-12-07T11:54:48;9.80;;;8.23;;
50126;SDS011;36024;47.974;16.398;2023-12-07T11:57:18;9.50;;;8.57;;
50126;SDS011;36024;47.974;16.398;2023-12-07T11:59:47;8.60;;;7.70;;
50126;SDS011;36024;47.974;16.398;2023-12-07T12:02:19;9.63;;;8.67;;
50126;SDS011;36024;47.974;16.398;2023-12-07T12:04:45;8.80;;;7.87;;
50126;SDS011;36024;47.974;16.398;2023-12-07T12:07:15;8.87;;;7.97;;
50126;SDS011;36024;47.974;16.398;2023-12-07T12:09:46;7.80;;;7.00;;
50126;SDS011;36024;47.974;16.398;2023-12-07T12:12:20;8.80;;;7.87;;
50126;SDS011;36024;47.974;16.398;2023-12-07T12:14:53;9.53;;;8.57;;
50126;SDS011;36024;47.974;16.398;2023-12-07T12:17:20;8.83;;;7.93;;
50126;SDS011;36024;47.974;16.398;2023-12-07T12:19:47;9.63;;;7.97;;
50126;SDS011;36024;47.974;16.398;2023-12-07T12:22:17;8.23;;;7.37;;
50126;SDS011;36024;47.974;16.398;2023-12-07T12:24:45;8.50;;;7.63;;
50126;SDS011;36024;47.974;16.398;2023-12-07T12:27:13;8.60;;;7.63;;
50126;SDS011;36024;47.974;16.398;2023-12-07T12:29:40;8.93;;;8.00;;
50126;SDS011;36024;47.974;16.398;2023-12-07T12:32:08;8.60;;;7.70;;
50126;SDS011;36024;47.974;16.398;2023-12-07T12:34:35;8.43;;;7.63;;
50126;SDS011;36024;47.974;16.398;2023-12-07T12:37:05;9.17;;;8.13;;
50126;SDS011;36024;47.974;16.398;2023-12-07T12:39:33;8.33;;;7.53;;
50126;SDS011;36024;47.974;16.398;2023-12-07T12:42:01;9.73;;;8.03;;
50126;SDS011;36024;47.974;16.398;2023-12-07T12:44:37;9.63;;;7.80;;
50126;SDS011;36024;47.974;16.398;2023-12-07T12:47:05;9.07;;;8.17;;
50126;SDS011;36024;47.974;16.398;2023-12-07T12:49:36;9.00;;;8.10;;
50126;SDS011;36024;47.974;16.398;2023-12-07T12:52:04;9.40;;;8.50;;
50126;SDS011;36024;47.974;16.398;2023-12-07T12:54:31;9.97;;;8.50;;
50126;SDS011;36024;47.974;16.398;2023-12-07T12:57:06;9.80;;;8.63;;
50126;SDS011;36024;47.974;16.398;2023-12-07T12:59:33;9.53;;;8.33;;
50126;SDS011;36024;47.974;16.398;2023-12-07T13:02:02;9.63;;;8.40;;
50126;SDS011;36024;47.974;16.398;2023-12-07T13:04:33;9.63;;;8.63;;
50126;SDS011;36024;47.974;16.398;2023-12-07T13:07:03;9.47;;;8.50;;
50126;SDS011;36024;47.974;16.398;2023-12-07T13:09:34;10.97;;;8.83;;
50126;SDS011;36024;47.974;16.398;2023-12-07T13:12:02;9.17;;;8.27;;
50126;SDS011;36024;47.974;16.398;2023-12-07T13:14:32;10.80;;;8.87;;
50126;SDS011;36024;47.974;16.398;2023-12-07T13:17:05;9.67;;;8.10;;
50126;SDS011;36024;47.974;16.398;2023-12-07T13:19:34;9.23;;;8.30;;
50126;SDS011;36024;47.974;16.398;2023-12-07T13:22:02;9.77;;;8.43;;
50126;SDS011;36024;47.974;16.398;2023-12-07T13:24:29;10.43;;;8.13;;
50126;SDS011;36024;47.974;16.398;2023-12-07T13:27:02;9.20;;;8.23;;
50126;SDS011;36024;47.974;16.398;2023-12-07T13:29:32;9.10;;;8.07;;
50126;SDS011;36024;47.974;16.398;2023-12-07T13:32:05;9.60;;;8.60;;
50126;SDS011;36024;47.974;16.398;2023-12-07T13:34:33;9.07;;;7.87;;
50126;SDS011;36024;47.974;16.398;2023-12-07T13:37:03;10.13;;;8.87;;
50126;SDS011;36024;47.974;16.398;2023-12-07T13:39:31;9.93;;;8.17;;
50126;SDS011;36024;47.974;16.398;2023-12-07T13:41:58;8.47;;;7.63;;
50126;SDS011;36024;47.974;16.398;2023-12-07T13:44:31;11.00;;;8.93;;
50126;SDS011;36024;47.974;16.398;2023-12-07T13:46:59;9.10;;;8.20;;
50126;SDS011;36024;47.974;16.398;2023-12-07T13:49:26;9.20;;;8.30;;
50126;SDS011;36024;47.974;16.398;2023-12-07T13:52:02;9.77;;;8.53;;
50126;SDS011;36024;47.974;16.398;2023-12-07T13:54:38;10.33;;;8.70;;
50126;SDS011;36024;47.974;16.398;2023-12-07T13:57:19;10.60;;;9.30;;
50126;SDS011;36024;47.974;16.398;2023-12-07T13:59:47;9.90;;;8.50;;
50126;SDS011;36024;47.974;16.398;2023-12-07T14:02:17;10.07;;;8.77;;
50126;SDS011;36024;47.974;16.398;2023-12-07T14:04:45;10.97;;;9.10;;
50126;SDS011;36024;47.974;16.398;2023-12-07T14:07:20;10.00;;;9.00;;
50126;SDS011;36024;47.974;16.398;2023-12-07T14:09:57;10.43;;;9.33;;
50126;SDS011;36024;47.974;16.398;2023-12-07T14:12:25;9.60;;;8.60;;
50126;SDS011;36024;47.974;16.398;2023-12-07T14:14:54;11.93;;;9.70;;
50126;SDS011;36024;47.974;16.398;2023-12-07T14:17:25;10.67;;;9.23;;
50126;SDS011;36024;47.974;16.398;2023-12-07T14:20:06;10.60;;;9.37;;
50126;SDS011;36024;47.974;16.398;2023-12-07T14:22:58;10.53;;;9.20;;
50126;SDS011;36024;47.974;16.398;2023-12-07T14:25:30;10.67;;;9.27;;
50126;SDS011;36024;47.974;16.398;2023-12-07T14:27:57;10.07;;;8.97;;
50126;SDS011;36024;47.974;16.398;2023-12-07T14:30:28;11.30;;;10.10;;
50126;SDS011;36024;47.974;16.398;2023-12-07T14:32:55;11.23;;;9.97;;
50126;SDS011;36024;47.974;16.398;2023-12-07T14:35:23;10.83;;;9.57;;
50126;SDS011;36024;47.974;16.398;2023-12-07T14:37:53;10.73;;;9.63;;
50126;SDS011;36024;47.974;16.398;2023-12-07T14:40:23;11.20;;;10.07;;
50126;SDS011;36024;47.974;16.398;2023-12-07T14:42:50;11.10;;;9.90;;
50126;SDS011;36024;47.974;16.398;2023-12-07T14:45:17;11.03;;;9.93;;
50126;SDS011;36024;47.974;16.398;2023-12-07T14:47:47;12.13;;;10.27;;
50126;SDS011;36024;47.974;16.398;2023-12-07T14:50:16;12.27;;;10.50;;
50126;SDS011;36024;47.974;16.398;2023-12-07T14:52:44;11.97;;;10.77;;
50126;SDS011;36024;47.974;16.398;2023-12-07T14:55:11;13.03;;;10.57;;
50126;SDS011;36024;47.974;16.398;2023-12-07T14:57:39;12.90;;;10.90;;
50126;SDS011;36024;47.974;16.398;2023-12-07T15:00:05;12.37;;;10.93;;